createdAt,value
2023-01-15T00:00:19.006Z,99126.53
2023-01-15T00:03:09.524Z,99130.47
2023-01-15T00:05:39.908Z,99124.88
2023-01-15T00:08:10.171Z,99129.31
2023-01-15T00:10:42.771Z,99141.09
2023-01-15T00:13:14.141Z,99111.88
2023-01-15T00:15:44.234Z,99094.00
2023-01-15T00:18:14.542Z,99138.31
2023-01-15T00:20:46.520Z,99103.16
2023-01-15T00:23:44.222Z,99102.53
2023-01-15T00:26:30.722Z,99101.19
2023-01-15T00:29:00.836Z,99104.31
2023-01-15T00:31:32.512Z,99113.31
2023-01-15T00:34:04.713Z,99107.91
2023-01-15T00:36:35.070Z,99097.22
2023-01-15T00:39:05.067Z,99098.88
2023-01-15T00:41:38.224Z,99081.97
2023-01-15T00:44:08.221Z,99067.84
2023-01-15T00:46:38.979Z,99084.59
2023-01-15T00:49:09.219Z,99055.72
2023-01-15T00:51:40.065Z,99048.97
2023-01-15T00:54:10.785Z,99050.97
2023-01-15T00:56:43.717Z,99065.38
2023-01-15T00:59:13.868Z,99064.03
2023-01-15T01:01:44.407Z,99057.44
2023-01-15T01:04:14.752Z,99077.28
2023-01-15T01:06:45.629Z,99040.63
2023-01-15T01:09:16.024Z,99054.13
2023-01-15T01:11:49.033Z,99035.69
2023-01-15T01:14:19.001Z,99032.44
2023-01-15T01:16:49.543Z,99034.72
2023-01-15T01:19:22.108Z,99024.66
2023-01-15T01:21:54.050Z,99032.09
2023-01-15T01:24:26.306Z,99041.06
2023-01-15T01:26:59.751Z,99020.34
2023-01-15T01:29:30.127Z,99025.41
2023-01-15T01:32:01.833Z,99042.81
2023-01-15T01:34:33.861Z,99040.66
2023-01-15T01:37:04.760Z,99052.78
2023-01-15T01:39:35.090Z,99048.19
2023-01-15T01:42:15.507Z,99038.16
2023-01-15T01:45:05.705Z,99030.44
2023-01-15T01:47:38.419Z,99008.91
2023-01-15T01:50:14.770Z,99033.53
2023-01-15T01:52:50.014Z,99001.81
2023-01-15T01:55:22.979Z,99006.28
2023-01-15T01:57:59.161Z,99025.00
2023-01-15T02:00:31.121Z,99048.47
2023-01-15T02:03:03.977Z,99026.47
2023-01-15T02:05:36.569Z,99027.44
2023-01-15T02:08:08.222Z,99028.69
2023-01-15T02:10:38.719Z,99035.13
2023-01-15T02:13:17.273Z,99029.38
2023-01-15T02:15:50.969Z,99023.13
2023-01-15T02:18:26.811Z,99020.59
2023-01-15T02:21:01.370Z,99005.47
2023-01-15T02:24:08.391Z,99010.94
2023-01-15T02:26:53.513Z,99030.59
2023-01-15T02:29:32.476Z,99026.06
2023-01-15T02:32:06.404Z,99027.50
2023-01-15T02:34:40.651Z,99028.56
2023-01-15T02:37:13.781Z,99019.41
2023-01-15T02:39:47.173Z,99017.06
2023-01-15T02:42:23.220Z,99033.03
2023-01-15T02:44:57.443Z,99003.66
2023-01-15T02:47:32.043Z,99007.44
2023-01-15T02:50:08.038Z,99008.13
2023-01-15T02:52:43.044Z,99015.38
2023-01-15T02:55:21.851Z,99007.50
2023-01-15T02:57:59.612Z,99012.22
2023-01-15T03:00:35.466Z,99010.94
2023-01-15T03:03:13.564Z,99017.19
2023-01-15T03:05:50.598Z,99013.56
2023-01-15T03:08:20.590Z,99012.09
2023-01-15T03:10:58.998Z,99022.59
2023-01-15T03:13:39.376Z,99001.44
2023-01-15T03:16:32.116Z,99004.06
2023-01-15T03:19:16.684Z,98997.63
2023-01-15T03:21:53.339Z,99004.88
2023-01-15T03:24:30.056Z,99017.19
2023-01-15T03:27:00.370Z,99016.88
2023-01-15T03:29:36.422Z,99010.81
2023-01-15T03:32:08.014Z,98999.97
2023-01-15T03:34:45.366Z,99002.75
2023-01-15T03:37:16.205Z,99000.47
2023-01-15T03:39:46.644Z,99000.13
2023-01-15T03:42:33.379Z,98998.97
2023-01-15T03:45:14.918Z,98999.47
2023-01-15T03:47:52.842Z,99002.75
2023-01-15T03:50:32.590Z,99006.97
2023-01-15T03:53:13.347Z,99018.97
2023-01-15T03:55:57.497Z,99017.00
2023-01-15T03:58:32.212Z,99021.75
2023-01-15T04:01:08.675Z,99017.81
2023-01-15T04:03:40.918Z,99022.25
2023-01-15T04:06:13.162Z,99015.66
2023-01-15T04:08:45.657Z,99010.94
2023-01-15T04:11:15.912Z,99016.00
2023-01-15T04:13:46.467Z,99018.47
2023-01-15T04:16:22.859Z,99011.41
2023-01-15T04:18:53.369Z,99024.53
2023-01-15T04:21:24.312Z,99031.06
2023-01-15T04:23:55.337Z,99058.94
2023-01-15T04:26:25.885Z,99068.69
2023-01-15T04:28:56.486Z,99082.81
2023-01-15T04:31:29.345Z,99090.03
2023-01-15T04:33:59.856Z,99085.34
2023-01-15T04:36:30.869Z,99075.38
2023-01-15T04:39:01.379Z,99078.31
2023-01-15T04:41:45.613Z,99080.13
2023-01-15T04:44:16.211Z,99075.38
2023-01-15T04:46:50.460Z,99083.38
2023-01-15T04:49:21.681Z,99114.47
2023-01-15T04:51:52.424Z,99120.69
2023-01-15T04:54:23.651Z,99119.69
2023-01-15T04:56:56.489Z,99127.06
2023-01-15T04:59:28.811Z,99115.34
2023-01-15T05:02:06.132Z,99112.88
2023-01-15T05:04:37.831Z,99121.56
2023-01-15T05:07:08.938Z,99123.78
2023-01-15T05:09:39.512Z,99127.22
2023-01-15T05:12:09.939Z,99127.34
2023-01-15T05:14:40.464Z,99122.56
2023-01-15T05:17:13.328Z,99133.88
2023-01-15T05:19:43.667Z,99124.97
2023-01-15T05:22:13.622Z,99121.91
2023-01-15T05:24:44.139Z,99121.38
2023-01-15T05:27:14.085Z,99131.19
2023-01-15T05:29:44.322Z,99136.69
2023-01-15T05:32:16.895Z,99128.31
2023-01-15T05:34:47.135Z,99121.53
2023-01-15T05:37:17.193Z,99133.41
2023-01-15T05:39:47.427Z,99135.50
2023-01-15T05:42:17.518Z,99135.06
2023-01-15T05:44:47.776Z,99132.91
2023-01-15T05:47:20.310Z,99135.50
2023-01-15T05:49:50.768Z,99137.97
2023-01-15T05:52:20.735Z,99127.06
2023-01-15T05:54:52.575Z,99141.25
2023-01-15T05:57:22.568Z,99150.09
2023-01-15T05:59:54.431Z,99141.09
2023-01-15T06:02:26.988Z,99149.22
2023-01-15T06:04:57.328Z,99137.41
2023-01-15T06:07:27.259Z,99134.91
2023-01-15T06:09:57.584Z,99130.50
2023-01-15T06:12:27.555Z,99142.84
2023-01-15T06:14:57.873Z,99126.38
2023-01-15T06:17:30.331Z,99122.66
2023-01-15T06:20:00.675Z,99129.50
2023-01-15T06:22:30.627Z,99126.69
2023-01-15T06:25:00.964Z,99123.09
2023-01-15T06:27:31.091Z,99132.91
2023-01-15T06:30:01.579Z,99137.16
2023-01-15T06:32:34.126Z,99125.88
2023-01-15T06:35:04.545Z,99134.03
2023-01-15T06:37:34.477Z,99149.25
2023-01-15T06:40:04.792Z,99146.81
2023-01-15T06:42:47.356Z,99152.06
2023-01-15T06:45:30.376Z,99159.25
2023-01-15T06:48:03.087Z,99160.91
2023-01-15T06:50:33.341Z,99161.34
2023-01-15T06:53:03.295Z,99156.28
2023-01-15T06:55:33.548Z,99162.84
2023-01-15T06:58:05.993Z,99154.97
2023-01-15T07:00:37.379Z,99144.84
2023-01-15T07:03:09.866Z,99162.94
2023-01-15T07:05:41.573Z,99161.66
2023-01-15T07:08:11.494Z,99155.00
2023-01-15T07:10:41.958Z,99161.16
2023-01-15T07:13:13.060Z,99164.53
2023-01-15T07:15:43.383Z,99174.81
2023-01-15T07:18:16.191Z,99177.56
2023-01-15T07:20:46.849Z,99178.06
2023-01-15T07:23:17.022Z,99170.06
2023-01-15T07:25:47.616Z,99192.09
2023-01-15T07:28:17.822Z,99176.09
2023-01-15T07:30:48.418Z,99177.09
2023-01-15T07:33:21.304Z,99181.03
2023-01-15T07:35:51.514Z,99190.50
2023-01-15T07:38:21.484Z,99195.16
2023-01-15T07:41:12.276Z,99210.84
2023-01-15T07:43:54.641Z,99194.22
2023-01-15T07:46:37.424Z,99181.16
2023-01-15T07:49:24.803Z,99194.88
2023-01-15T07:51:55.114Z,99193.50
2023-01-15T07:54:25.402Z,99203.69
2023-01-15T07:56:56.636Z,99210.94
2023-01-15T07:59:27.778Z,99212.78
2023-01-15T08:01:58.175Z,99215.94
2023-01-15T08:04:30.757Z,99212.28
2023-01-15T08:07:02.560Z,99218.31
2023-01-15T08:09:32.800Z,99222.25
2023-01-15T08:12:16.424Z,99225.84
2023-01-15T08:15:02.058Z,99215.78
2023-01-15T08:17:32.663Z,99208.53
2023-01-15T08:20:05.617Z,99191.50
2023-01-15T08:22:35.989Z,99184.34
2023-01-15T08:25:06.059Z,99193.69
2023-01-15T08:27:36.505Z,99187.47
2023-01-15T08:30:07.813Z,99189.13
2023-01-15T08:32:38.107Z,99203.84
2023-01-15T08:35:13.156Z,99202.19
2023-01-15T08:37:46.343Z,99199.94
2023-01-15T08:40:18.741Z,99199.22
2023-01-15T08:42:49.173Z,99198.38
2023-01-15T08:45:22.409Z,99203.91
2023-01-15T08:47:52.868Z,99199.88
2023-01-15T08:50:25.530Z,99207.28
2023-01-15T08:52:56.179Z,99205.78
2023-01-15T08:55:26.301Z,99208.41
2023-01-15T08:57:56.802Z,99197.84
2023-01-15T09:00:28.004Z,99198.59
2023-01-15T09:03:00.357Z,99204.13
2023-01-15T09:05:53.887Z,99206.38
2023-01-15T09:08:28.977Z,99215.25
2023-01-15T09:11:00.811Z,99224.31
2023-01-15T09:13:40.133Z,99224.75
2023-01-15T09:16:40.720Z,99229.59
2023-01-15T09:19:26.230Z,99229.00
2023-01-15T09:22:00.658Z,99218.00
2023-01-15T09:24:36.739Z,99228.78
2023-01-15T09:27:12.248Z,99228.19
2023-01-15T09:30:10.126Z,99244.31
2023-01-15T09:32:56.451Z,99246.63
2023-01-15T09:35:36.416Z,99236.31
2023-01-15T09:38:12.039Z,99248.56
2023-01-15T09:40:53.188Z,99241.16
2023-01-15T09:43:50.336Z,99252.97
2023-01-15T09:46:28.352Z,99250.28
2023-01-15T09:49:23.145Z,99256.47
2023-01-15T09:52:06.972Z,99239.50
2023-01-15T09:54:55.476Z,99236.97
2023-01-15T09:57:27.741Z,99235.03
2023-01-15T10:00:03.517Z,99237.97
2023-01-15T10:02:40.654Z,99247.63
2023-01-15T10:05:18.533Z,99235.69
2023-01-15T10:07:57.036Z,99234.41
2023-01-15T10:10:34.064Z,99237.41
2023-01-15T10:13:17.578Z,99230.44
2023-01-15T10:15:50.913Z,99227.16
2023-01-15T10:18:24.132Z,99226.97
2023-01-15T10:21:22.003Z,99242.31
2023-01-15T10:24:04.420Z,99228.94
2023-01-15T10:26:46.629Z,99221.00
2023-01-15T10:29:28.078Z,99218.53
2023-01-15T10:32:04.865Z,99215.34
2023-01-15T10:35:06.733Z,99227.84
2023-01-15T10:37:47.755Z,99232.44
2023-01-15T10:40:36.149Z,99230.47
2023-01-15T10:43:16.860Z,99218.13
2023-01-15T10:45:50.910Z,99224.47
2023-01-15T10:48:31.205Z,99214.53
2023-01-15T10:51:06.229Z,99234.63
2023-01-15T10:53:43.218Z,99220.56
2023-01-15T10:56:19.018Z,99226.31
2023-01-15T10:58:57.916Z,99229.09
2023-01-15T11:01:30.239Z,99222.28
2023-01-15T11:04:00.265Z,99254.28
2023-01-15T11:06:35.509Z,99250.53
2023-01-15T11:09:11.490Z,99252.00
2023-01-15T11:12:05.703Z,99250.38
2023-01-15T11:14:53.652Z,99249.13
2023-01-15T11:17:37.804Z,99237.81
2023-01-15T11:20:19.582Z,99242.38
2023-01-15T11:22:49.966Z,99238.00
2023-01-15T11:25:30.187Z,99235.41
2023-01-15T11:28:17.303Z,99237.34
2023-01-15T11:34:14.699Z,99239.66
2023-01-15T11:36:45.073Z,99244.44
2023-01-15T11:39:27.033Z,99235.88
2023-01-15T11:42:14.902Z,99228.34
2023-01-15T11:45:06.586Z,99231.69
2023-01-15T11:47:51.725Z,99233.97
2023-01-15T11:50:35.905Z,99221.22
2023-01-15T11:53:06.493Z,99227.75
2023-01-15T11:55:42.405Z,99215.50
2023-01-15T11:58:25.100Z,99209.59
2023-01-15T12:00:58.428Z,99213.03
2023-01-15T12:03:38.041Z,99242.28
2023-01-15T12:06:14.519Z,99237.41
2023-01-15T12:08:52.067Z,99220.50
2023-01-15T12:11:34.949Z,99218.06
2023-01-15T12:14:27.572Z,99226.25
2023-01-15T12:17:05.101Z,99221.03
2023-01-15T12:19:46.380Z,99192.25
2023-01-15T12:22:36.247Z,99200.94
2023-01-15T12:34:34.157Z,99219.09
2023-01-15T12:37:09.330Z,99217.88
2023-01-15T12:39:49.242Z,99218.06
2023-01-15T12:42:38.958Z,99215.66
2023-01-15T12:45:13.939Z,99203.38
2023-01-15T12:47:48.669Z,99210.88
2023-01-15T12:50:36.036Z,99197.13
2023-01-15T12:53:17.548Z,99212.00
2023-01-15T12:55:57.046Z,99201.84
2023-01-15T12:58:41.630Z,99197.59
2023-01-15T13:01:18.440Z,99194.97
2023-01-15T13:03:59.197Z,99212.22
2023-01-15T13:06:32.398Z,99200.84
2023-01-15T13:09:07.048Z,99189.03
2023-01-15T13:11:37.169Z,99201.94
2023-01-15T13:14:15.895Z,99195.59
2023-01-15T13:16:58.068Z,99211.59
2023-01-15T13:19:39.350Z,99185.66
2023-01-15T13:22:20.143Z,99170.16
2023-01-15T13:25:04.206Z,99182.66
2023-01-15T13:27:50.669Z,99198.25
2023-01-15T13:30:38.993Z,99198.66
2023-01-15T13:33:21.631Z,99196.34
2023-01-15T13:35:56.778Z,99211.34
2023-01-15T13:38:30.961Z,99204.47
2023-01-15T13:41:01.716Z,99205.13
2023-01-15T13:43:39.206Z,99214.94
2023-01-15T13:46:13.442Z,99185.25
2023-01-15T13:48:46.784Z,99186.16
2023-01-15T13:51:29.840Z,99199.69
2023-01-15T13:54:03.647Z,99201.28
2023-01-15T13:56:36.316Z,99215.97
2023-01-15T13:59:09.014Z,99233.00
2023-01-15T14:01:40.404Z,99221.44
2023-01-15T14:04:17.010Z,99211.19
2023-01-15T14:06:49.028Z,99210.91
2023-01-15T14:09:34.503Z,99212.41
2023-01-15T14:12:17.100Z,99216.00
2023-01-15T14:15:08.380Z,99223.88
2023-01-15T14:18:03.677Z,99227.56
2023-01-15T14:21:03.838Z,99234.41
2023-01-15T14:24:01.246Z,99252.75
2023-01-15T14:26:44.326Z,99258.94
2023-01-15T14:29:40.913Z,99256.03
2023-01-15T14:32:20.319Z,99271.38
2023-01-15T14:34:58.680Z,99278.94
2023-01-15T14:37:33.127Z,99304.19
2023-01-15T14:40:06.249Z,99286.09
2023-01-15T14:42:54.923Z,99284.72
2023-01-15T14:45:29.621Z,99292.50
2023-01-15T14:48:01.298Z,99298.31
2023-01-15T14:50:38.596Z,99295.38
2023-01-15T14:53:22.723Z,99323.50
2023-01-15T14:55:59.424Z,99314.47
2023-01-15T14:58:46.227Z,99320.91
2023-01-15T15:01:27.423Z,99326.47
2023-01-15T15:04:01.798Z,99320.75
2023-01-15T15:06:33.152Z,99324.72
2023-01-15T15:09:11.880Z,99316.34
2023-01-15T15:12:00.927Z,99333.78
2023-01-15T15:14:35.439Z,99321.31
2023-01-15T15:17:14.831Z,99324.38
2023-01-15T15:19:51.822Z,99325.03
2023-01-15T15:22:23.499Z,99327.53
2023-01-15T15:24:56.863Z,99312.88
2023-01-15T15:27:27.803Z,99336.91
2023-01-15T15:30:09.684Z,99313.91
2023-01-15T15:32:41.327Z,99350.22
2023-01-15T15:35:26.885Z,99323.41
2023-01-15T15:37:58.287Z,99344.59
2023-01-15T15:40:34.770Z,99322.34
2023-01-15T15:43:26.273Z,99333.78
2023-01-15T15:46:12.768Z,99331.22
2023-01-15T15:48:45.807Z,99315.31
2023-01-15T15:51:30.740Z,99330.59
2023-01-15T15:54:12.858Z,99331.28
2023-01-15T15:56:47.128Z,99319.19
2023-01-15T15:59:22.979Z,99326.66
2023-01-15T16:01:56.189Z,99308.31
2023-01-15T16:04:27.016Z,99311.41
2023-01-15T16:06:56.966Z,99322.91
2023-01-15T16:09:27.677Z,99310.72
2023-01-15T16:12:07.287Z,99326.41
2023-01-15T16:14:39.989Z,99306.50
2023-01-15T16:17:16.576Z,99306.09
2023-01-15T16:19:47.719Z,99316.53
2023-01-15T16:22:21.244Z,99315.03
2023-01-15T16:24:59.550Z,99308.44
2023-01-15T16:27:35.924Z,99314.22
2023-01-15T16:30:06.999Z,99311.50
2023-01-15T16:32:40.144Z,99295.81
2023-01-15T16:35:19.239Z,99302.31
2023-01-15T16:37:53.775Z,99294.19
2023-01-15T16:40:30.563Z,99292.81
2023-01-15T16:43:09.802Z,99300.56
2023-01-15T16:45:54.523Z,99303.03
2023-01-15T16:48:36.821Z,99318.56
2023-01-15T16:51:33.322Z,99312.50
2023-01-15T16:54:04.727Z,99322.13
2023-01-15T16:56:53.435Z,99338.75
2023-01-15T17:00:02.232Z,99317.03
2023-01-15T17:02:43.148Z,99303.03
2023-01-15T17:05:28.858Z,99327.19
2023-01-15T17:07:59.185Z,99306.31
2023-01-15T17:10:31.738Z,99324.88
2023-01-15T17:13:02.174Z,99309.50
2023-01-15T17:15:38.979Z,99293.72
2023-01-15T17:18:30.344Z,99301.09
2023-01-15T17:21:04.111Z,99303.84
2023-01-15T17:23:41.889Z,99304.41
2023-01-15T17:26:19.748Z,99298.34
2023-01-15T17:28:50.996Z,99326.25
2023-01-15T17:31:29.968Z,99301.91
2023-01-15T17:34:01.892Z,99276.66
2023-01-15T17:36:34.843Z,99308.91
2023-01-15T17:39:05.509Z,99311.41
2023-01-15T17:41:36.559Z,99295.44
2023-01-15T17:44:07.234Z,99300.16
2023-01-15T17:46:37.233Z,99313.59
2023-01-15T17:49:07.742Z,99307.00
2023-01-15T17:51:42.757Z,99294.75
2023-01-15T17:54:33.163Z,99319.91
2023-01-15T17:57:15.562Z,99314.69
2023-01-15T17:59:58.414Z,99318.81
2023-01-15T18:02:51.545Z,99305.22
2023-01-15T18:05:30.731Z,99313.72
2023-01-15T18:08:07.081Z,99302.31
2023-01-15T18:10:40.234Z,99343.28
2023-01-15T18:13:12.917Z,99327.75
2023-01-15T18:15:45.675Z,99329.69
2023-01-15T18:18:18.327Z,99315.53
2023-01-15T18:20:49.471Z,99335.56
2023-01-15T18:23:22.062Z,99315.66
2023-01-15T18:25:52.691Z,99349.34
2023-01-15T18:28:23.599Z,99331.31
2023-01-15T18:30:54.443Z,99345.06
2023-01-15T18:33:24.989Z,99330.50
2023-01-15T18:36:05.159Z,99340.25
2023-01-15T18:38:40.443Z,99346.44
2023-01-15T18:41:12.545Z,99348.09
2023-01-15T18:43:55.074Z,99341.38
2023-01-15T18:46:39.236Z,99331.47
2023-01-15T18:49:15.192Z,99336.69
2023-01-15T18:52:05.781Z,99331.75
2023-01-15T18:54:38.871Z,99347.84
2023-01-15T18:57:09.333Z,99347.41
2023-01-15T18:59:39.358Z,99334.22
2023-01-15T19:02:09.881Z,99338.09
2023-01-15T19:04:40.341Z,99351.16
2023-01-15T19:07:11.351Z,99325.72
2023-01-15T19:09:43.897Z,99338.47
2023-01-15T19:12:15.300Z,99341.09
2023-01-15T19:14:57.783Z,99324.75
2023-01-15T19:17:41.098Z,99342.63
2023-01-15T19:20:13.035Z,99352.91
2023-01-15T19:22:56.088Z,99341.50
2023-01-15T19:25:30.097Z,99344.97
2023-01-15T19:28:01.093Z,99343.59
2023-01-15T19:30:32.288Z,99348.25
2023-01-15T19:33:03.469Z,99333.25
2023-01-15T19:35:35.611Z,99340.53
2023-01-15T19:38:08.306Z,99339.06
2023-01-15T19:40:42.987Z,99355.91
2023-01-15T19:43:26.730Z,99343.69
2023-01-15T19:46:09.567Z,99357.44
2023-01-15T19:48:52.855Z,99358.66
2023-01-15T19:51:23.429Z,99344.38
2023-01-15T19:53:56.972Z,99332.84
2023-01-15T19:56:30.086Z,99340.78
2023-01-15T19:59:00.698Z,99339.03
2023-01-15T20:01:31.039Z,99337.50
2023-01-15T20:04:01.760Z,99339.44
2023-01-15T20:06:31.919Z,99355.41
2023-01-15T20:09:02.520Z,99347.28
2023-01-15T20:11:55.179Z,99344.78
2023-01-15T20:14:22.948Z,99336.97
2023-01-15T20:16:52.888Z,99354.56
2023-01-15T20:19:23.189Z,99358.97
2023-01-15T20:21:53.221Z,99334.13
2023-01-15T20:24:23.502Z,99353.06
2023-01-15T20:26:56.138Z,99342.09
2023-01-15T20:29:26.404Z,99344.28
2023-01-15T20:31:56.558Z,99353.88
2023-01-15T20:34:27.180Z,99340.59
2023-01-15T20:36:57.442Z,99358.31
2023-01-15T20:39:31.666Z,99335.22
2023-01-15T20:42:19.824Z,99352.53
2023-01-15T20:44:56.412Z,99339.47
2023-01-15T20:47:41.195Z,99355.56
2023-01-15T20:50:17.723Z,99350.50
2023-01-15T20:52:49.688Z,99360.22
2023-01-15T20:55:21.076Z,99353.09
2023-01-15T20:58:11.287Z,99355.44
2023-01-15T21:00:58.065Z,99342.38
2023-01-15T21:07:02.728Z,99340.72
2023-01-15T21:09:34.150Z,99353.66
2023-01-15T21:12:07.040Z,99336.31
2023-01-15T21:14:40.824Z,99348.56
2023-01-15T21:17:24.884Z,99351.03
2023-01-15T21:20:05.198Z,99362.69
2023-01-15T21:22:37.219Z,99351.16
2023-01-15T21:25:09.692Z,99356.66
2023-01-15T21:27:41.710Z,99347.19
2023-01-15T21:30:47.826Z,99350.59
2023-01-15T21:33:19.212Z,99340.84
2023-01-15T21:35:49.500Z,99377.81
2023-01-15T21:38:19.935Z,99364.47
2023-01-15T21:40:54.280Z,99358.31
2023-01-15T21:43:37.897Z,99362.00
2023-01-15T21:46:11.513Z,99348.28
2023-01-15T21:48:43.198Z,99359.28
2023-01-15T21:51:13.699Z,99355.13
2023-01-15T21:53:50.240Z,99358.72
2023-01-15T21:56:20.240Z,99370.81
2023-01-15T21:58:50.696Z,99380.44
2023-01-15T22:01:24.924Z,99387.72
2023-01-15T22:03:55.532Z,99365.88
2023-01-15T22:06:26.831Z,99343.63
2023-01-15T22:08:57.948Z,99371.50
2023-01-15T22:11:47.584Z,99354.66
2023-01-15T22:14:24.855Z,99351.88
2023-01-15T22:17:06.242Z,99347.34
2023-01-15T22:19:37.472Z,99360.28
2023-01-15T22:22:17.805Z,99346.25
2023-01-15T22:25:20.887Z,99358.25
2023-01-15T22:32:40.278Z,99352.63
2023-01-15T22:35:32.929Z,99369.38
2023-01-15T22:38:30.301Z,99355.22
2023-01-15T22:41:37.786Z,99358.38
2023-01-15T22:44:27.976Z,99353.31
2023-01-15T22:46:59.596Z,99361.94
2023-01-15T22:49:33.049Z,99358.81
2023-01-15T22:52:04.487Z,99362.53
2023-01-15T22:55:29.430Z,99348.13
2023-01-15T22:58:02.695Z,99359.63
2023-01-15T23:00:32.993Z,99352.66
2023-01-15T23:03:07.748Z,99349.19
2023-01-15T23:05:40.887Z,99353.91
2023-01-15T23:08:11.771Z,99349.09
2023-01-15T23:10:46.260Z,99358.56
2023-01-15T23:13:16.419Z,99355.94
2023-01-15T23:15:46.812Z,99345.66
2023-01-15T23:18:19.227Z,99363.94
2023-01-15T23:20:52.122Z,99358.44
2023-01-15T23:23:22.171Z,99347.44
2023-01-15T23:25:52.475Z,99354.59
2023-01-15T23:28:22.559Z,99353.63
2023-01-15T23:30:55.346Z,99352.13
2023-01-15T23:33:25.790Z,99341.00
2023-01-15T23:36:05.882Z,99346.47
2023-01-15T23:38:41.228Z,99348.56
2023-01-15T23:41:14.164Z,99355.66
2023-01-15T23:43:57.288Z,99362.56
2023-01-15T23:46:36.666Z,99350.44
2023-01-15T23:49:10.151Z,99359.13
2023-01-15T23:51:45.529Z,99336.88
2023-01-15T23:54:15.554Z,99332.63
2023-01-15T23:56:46.241Z,99343.88
2023-01-15T23:59:16.267Z,99341.13
